sensor_id;sensor_type;location;lat;lon;timestamp;temperature;humidity
30678;DHT22;73746;47.466;8.992;2023-11-22T00:02:22;7.50;99.90
30678;DHT22;73746;47.466;8.992;2023-11-22T00:04:56;7.40;99.90
30678;DHT22;73746;47.466;8.992;2023-11-22T00:07:28;7.40;99.90
30678;DHT22;73746;47.466;8.992;2023-11-22T00:10:00;7.40;99.90
30678;DHT22;73746;47.466;8.992;2023-11-22T00:12:34;7.30;99.90
30678;DHT22;73746;47.466;8.992;2023-11-22T00:15:09;7.30;99.90
30678;DHT22;73746;47.466;8.992;2023-11-22T00:17:42;7.20;99.90
30678;DHT22;73746;47.466;8.992;2023-11-22T00:20:14;7.20;99.90
30678;DHT22;73746;47.466;8.992;2023-11-22T00:22:48;7.20;99.90
30678;DHT22;73746;47.466;8.992;2023-11-22T00:25:20;7.20;99.90
30678;DHT22;73746;47.466;8.992;2023-11-22T00:27:52;7.20;99.90
30678;DHT22;73746;47.466;8.992;2023-11-22T00:30:26;7.10;99.90
30678;DHT22;73746;47.466;8.992;2023-11-22T00:32:58;7.10;99.90
30678;DHT22;73746;47.466;8.992;2023-11-22T00:35:30;7.10;99.90
30678;DHT22;73746;47.466;8.992;2023-11-22T00:38:02;7.00;99.90
30678;DHT22;73746;47.466;8.992;2023-11-22T00:40:35;7.00;99.90
30678;DHT22;73746;47.466;8.992;2023-11-22T00:43:07;7.00;99.90
30678;DHT22;73746;47.466;8.992;2023-11-22T00:45:39;7.00;99.90
30678;DHT22;73746;47.466;8.992;2023-11-22T00:48:11;7.00;99.90
30678;DHT22;73746;47.466;8.992;2023-11-22T00:50:43;7.10;99.90
30678;DHT22;73746;47.466;8.992;2023-11-22T00:53:15;7.10;99.90
30678;DHT22;73746;47.466;8.992;2023-11-22T00:55:49;7.10;99.90
30678;DHT22;73746;47.466;8.992;2023-11-22T00:58:21;7.10;99.90
30678;DHT22;73746;47.466;8.992;2023-11-22T01:00:53;7.20;99.90
30678;DHT22;73746;47.466;8.992;2023-11-22T01:03:25;7.20;99.90
30678;DHT22;73746;47.466;8.992;2023-11-22T01:05:57;7.20;99.90
30678;DHT22;73746;47.466;8.992;2023-11-22T01:08:29;7.20;99.90
30678;DHT22;73746;47.466;8.992;2023-11-22T01:11:01;7.20;99.90
30678;DHT22;73746;47.466;8.992;2023-11-22T01:13:35;7.20;99.90
30678;DHT22;73746;47.466;8.992;2023-11-22T01:16:08;7.20;99.90
30678;DHT22;73746;47.466;8.992;2023-11-22T01:18:59;7.20;99.90
30678;DHT22;73746;47.466;8.992;2023-11-22T01:21:31;7.20;99.90
30678;DHT22;73746;47.466;8.992;2023-11-22T01:24:05;7.20;99.90
30678;DHT22;73746;47.466;8.992;2023-11-22T01:26:37;7.20;99.90
30678;DHT22;73746;47.466;8.992;2023-11-22T01:29:10;7.20;99.90
30678;DHT22;73746;47.466;8.992;2023-11-22T01:31:42;7.20;99.90
30678;DHT22;73746;47.466;8.992;2023-11-22T01:34:14;7.20;99.90
30678;DHT22;73746;47.466;8.992;2023-11-22T01:36:50;7.20;99.90
30678;DHT22;73746;47.466;8.992;2023-11-22T01:39:22;7.20;99.90
30678;DHT22;73746;47.466;8.992;2023-11-22T01:41:54;7.20;99.90
30678;DHT22;73746;47.466;8.992;2023-11-22T01:44:26;7.20;99.90
30678;DHT22;73746;47.466;8.992;2023-11-22T01:46:58;7.20;99.90
30678;DHT22;73746;47.466;8.992;2023-11-22T01:49:31;7.30;99.90
30678;DHT22;73746;47.466;8.992;2023-11-22T01:52:05;7.30;99.90
30678;DHT22;73746;47.466;8.992;2023-11-22T01:54:38;7.20;99.90
30678;DHT22;73746;47.466;8.992;2023-11-22T01:57:10;7.20;99.90
30678;DHT22;73746;47.466;8.992;2023-11-22T01:59:43;7.20;99.90
30678;DHT22;73746;47.466;8.992;2023-11-22T02:02:16;7.20;99.90
30678;DHT22;73746;47.466;8.992;2023-11-22T02:04:49;7.20;99.90
30678;DHT22;73746;47.466;8.992;2023-11-22T02:07:21;7.20;99.90
30678;DHT22;73746;47.466;8.992;2023-11-22T02:09:53;7.20;99.90
30678;DHT22;73746;47.466;8.992;2023-11-22T02:12:25;7.20;99.90
30678;DHT22;73746;47.466;8.992;2023-11-22T02:14:57;7.10;99.90
30678;DHT22;73746;47.466;8.992;2023-11-22T02:17:29;7.00;99.90
30678;DHT22;73746;47.466;8.992;2023-11-22T02:20:01;7.10;99.90
30678;DHT22;73746;47.466;8.992;2023-11-22T02:22:35;7.10;99.90
30678;DHT22;73746;47.466;8.992;2023-11-22T02:25:09;7.10;99.90
30678;DHT22;73746;47.466;8.992;2023-11-22T02:27:41;7.10;99.90
30678;DHT22;73746;47.466;8.992;2023-11-22T02:30:14;7.10;99.90
30678;DHT22;73746;47.466;8.992;2023-11-22T02:32:47;7.10;99.90
30678;DHT22;73746;47.466;8.992;2023-11-22T02:35:18;7.10;99.90
30678;DHT22;73746;47.466;8.992;2023-11-22T02:37:50;7.10;99.90
30678;DHT22;73746;47.466;8.992;2023-11-22T02:40:23;7.20;99.90
30678;DHT22;73746;47.466;8.992;2023-11-22T02:42:55;7.20;99.90
30678;DHT22;73746;47.466;8.992;2023-11-22T02:45:29;7.20;99.90
30678;DHT22;73746;47.466;8.992;2023-11-22T02:48:01;7.20;99.90
30678;DHT22;73746;47.466;8.992;2023-11-22T02:50:34;7.20;99.90
30678;DHT22;73746;47.466;8.992;2023-11-22T02:53:07;7.20;99.90
30678;DHT22;73746;47.466;8.992;2023-11-22T02:55:39;7.20;99.90
30678;DHT22;73746;47.466;8.992;2023-11-22T02:58:12;7.20;99.90
30678;DHT22;73746;47.466;8.992;2023-11-22T03:00:44;7.20;99.90
30678;DHT22;73746;47.466;8.992;2023-11-22T03:03:16;7.20;99.90
30678;DHT22;73746;47.466;8.992;2023-11-22T03:05:48;7.20;99.90
30678;DHT22;73746;47.466;8.992;2023-11-22T03:08:20;7.20;99.90
30678;DHT22;73746;47.466;8.992;2023-11-22T03:10:52;7.20;99.90
30678;DHT22;73746;47.466;8.992;2023-11-22T03:13:24;7.20;99.90
30678;DHT22;73746;47.466;8.992;2023-11-22T03:15:57;7.20;99.90
30678;DHT22;73746;47.466;8.992;2023-11-22T03:18:29;7.20;99.90
30678;DHT22;73746;47.466;8.992;2023-11-22T03:21:01;7.20;99.90
30678;DHT22;73746;47.466;8.992;2023-11-22T03:23:33;7.10;99.90
30678;DHT22;73746;47.466;8.992;2023-11-22T03:26:08;7.10;99.90
30678;DHT22;73746;47.466;8.992;2023-11-22T03:28:40;7.10;99.90
30678;DHT22;73746;47.466;8.992;2023-11-22T03:31:12;7.10;99.90
30678;DHT22;73746;47.466;8.992;2023-11-22T03:33:45;7.10;99.90
30678;DHT22;73746;47.466;8.992;2023-11-22T03:36:17;7.10;99.90
30678;DHT22;73746;47.466;8.992;2023-11-22T03:38:50;7.10;99.90
30678;DHT22;73746;47.466;8.992;2023-11-22T03:41:22;7.10;99.90
30678;DHT22;73746;47.466;8.992;2023-11-22T03:43:54;7.10;99.90
30678;DHT22;73746;47.466;8.992;2023-11-22T03:46:26;7.10;99.90
30678;DHT22;73746;47.466;8.992;2023-11-22T03:48:58;7.00;99.90
30678;DHT22;73746;47.466;8.992;2023-11-22T03:51:30;7.00;99.90
30678;DHT22;73746;47.466;8.992;2023-11-22T03:54:03;7.00;99.90
30678;DHT22;73746;47.466;8.992;2023-11-22T03:56:35;7.00;99.90
30678;DHT22;73746;47.466;8.992;2023-11-22T03:59:07;7.00;99.90
30678;DHT22;73746;47.466;8.992;2023-11-22T04:01:39;7.00;99.90
30678;DHT22;73746;47.466;8.992;2023-11-22T04:04:11;7.00;99.90
30678;DHT22;73746;47.466;8.992;2023-11-22T04:06:43;6.90;99.90
30678;DHT22;73746;47.466;8.992;2023-11-22T04:09:15;6.90;99.90
30678;DHT22;73746;47.466;8.992;2023-11-22T04:11:48;6.90;99.90
30678;DHT22;73746;47.466;8.992;2023-11-22T04:14:20;7.00;99.90
30678;DHT22;73746;47.466;8.992;2023-11-22T04:16:53;7.00;99.90
30678;DHT22;73746;47.466;8.992;2023-11-22T04:19:25;7.00;99.90
30678;DHT22;73746;47.466;8.992;2023-11-22T04:21:58;7.00;99.90
30678;DHT22;73746;47.466;8.992;2023-11-22T04:24:30;7.00;99.90
30678;DHT22;73746;47.466;8.992;2023-11-22T04:27:02;7.00;99.90
30678;DHT22;73746;47.466;8.992;2023-11-22T04:29:34;7.00;99.90
30678;DHT22;73746;47.466;8.992;2023-11-22T04:32:07;7.10;99.90
30678;DHT22;73746;47.466;8.992;2023-11-22T04:34:41;7.10;99.90
30678;DHT22;73746;47.466;8.992;2023-11-22T04:37:13;7.10;99.90
30678;DHT22;73746;47.466;8.992;2023-11-22T04:39:45;7.20;99.90
30678;DHT22;73746;47.466;8.992;2023-11-22T04:42:18;7.20;99.90
30678;DHT22;73746;47.466;8.992;2023-11-22T04:44:52;7.20;99.90
30678;DHT22;73746;47.466;8.992;2023-11-22T04:47:24;7.20;99.90
30678;DHT22;73746;47.466;8.992;2023-11-22T04:49:56;7.20;99.90
30678;DHT22;73746;47.466;8.992;2023-11-22T04:52:28;7.20;99.90
30678;DHT22;73746;47.466;8.992;2023-11-22T04:55:02;7.20;99.90
30678;DHT22;73746;47.466;8.992;2023-11-22T04:57:36;7.20;99.90
30678;DHT22;73746;47.466;8.992;2023-11-22T05:00:10;7.20;99.90
30678;DHT22;73746;47.466;8.992;2023-11-22T05:02:42;7.20;99.90
30678;DHT22;73746;47.466;8.992;2023-11-22T05:05:14;7.20;99.90
30678;DHT22;73746;47.466;8.992;2023-11-22T05:07:47;7.10;99.90
30678;DHT22;73746;47.466;8.992;2023-11-22T05:10:19;7.10;99.90
30678;DHT22;73746;47.466;8.992;2023-11-22T05:12:52;7.20;99.90
30678;DHT22;73746;47.466;8.992;2023-11-22T05:15:25;7.20;99.90
30678;DHT22;73746;47.466;8.992;2023-11-22T05:17:57;7.20;99.90
30678;DHT22;73746;47.466;8.992;2023-11-22T05:20:29;7.20;99.90
30678;DHT22;73746;47.466;8.992;2023-11-22T05:23:01;7.10;99.90
30678;DHT22;73746;47.466;8.992;2023-11-22T05:25:36;7.00;99.90
30678;DHT22;73746;47.466;8.992;2023-11-22T05:28:08;7.00;99.90
30678;DHT22;73746;47.466;8.992;2023-11-22T05:30:40;7.00;99.90
30678;DHT22;73746;47.466;8.992;2023-11-22T05:33:12;6.90;99.90
30678;DHT22;73746;47.466;8.992;2023-11-22T05:35:44;6.90;99.90
30678;DHT22;73746;47.466;8.992;2023-11-22T05:38:16;6.90;99.90
30678;DHT22;73746;47.466;8.992;2023-11-22T05:40:48;6.90;99.90
30678;DHT22;73746;47.466;8.992;2023-11-22T05:43:20;6.90;99.90
30678;DHT22;73746;47.466;8.992;2023-11-22T05:45:54;6.90;99.90
30678;DHT22;73746;47.466;8.992;2023-11-22T05:48:26;6.90;99.90
30678;DHT22;73746;47.466;8.992;2023-11-22T05:50:58;6.90;99.90
30678;DHT22;73746;47.466;8.992;2023-11-22T05:53:30;6.90;99.90
30678;DHT22;73746;47.466;8.992;2023-11-22T05:56:02;6.90;99.90
30678;DHT22;73746;47.466;8.992;2023-11-22T05:58:36;6.90;99.90
30678;DHT22;73746;47.466;8.992;2023-11-22T06:01:09;6.90;99.90
30678;DHT22;73746;47.466;8.992;2023-11-22T06:03:43;7.00;99.90
30678;DHT22;73746;47.466;8.992;2023-11-22T06:06:15;7.00;99.90
30678;DHT22;73746;47.466;8.992;2023-11-22T06:08:47;6.90;99.90
30678;DHT22;73746;47.466;8.992;2023-11-22T06:11:19;6.90;99.90
30678;DHT22;73746;47.466;8.992;2023-11-22T06:13:51;7.00;99.90
30678;DHT22;73746;47.466;8.992;2023-11-22T06:16:23;7.00;99.90
30678;DHT22;73746;47.466;8.992;2023-11-22T06:18:55;7.00;99.90
30678;DHT22;73746;47.466;8.992;2023-11-22T06:21:27;7.00;99.90
30678;DHT22;73746;47.466;8.992;2023-11-22T06:23:59;6.90;99.90
30678;DHT22;73746;47.466;8.992;2023-11-22T06:26:33;6.90;99.90
30678;DHT22;73746;47.466;8.992;2023-11-22T06:29:05;6.90;99.90
30678;DHT22;73746;47.466;8.992;2023-11-22T06:31:37;6.90;99.90
30678;DHT22;73746;47.466;8.992;2023-11-22T06:34:09;6.90;99.90
30678;DHT22;73746;47.466;8.992;2023-11-22T06:36:41;6.90;99.90
30678;DHT22;73746;47.466;8.992;2023-11-22T06:39:13;7.00;99.90
30678;DHT22;73746;47.466;8.992;2023-11-22T06:41:45;7.00;99.90
30678;DHT22;73746;47.466;8.992;2023-11-22T06:44:18;7.00;99.90
30678;DHT22;73746;47.466;8.992;2023-11-22T06:46:50;7.00;99.90
30678;DHT22;73746;47.466;8.992;2023-11-22T06:49:23;6.90;99.90
30678;DHT22;73746;47.466;8.992;2023-11-22T06:51:55;7.00;99.90
30678;DHT22;73746;47.466;8.992;2023-11-22T06:54:27;6.90;99.90
30678;DHT22;73746;47.466;8.992;2023-11-22T06:56:59;6.90;99.90
30678;DHT22;73746;47.466;8.992;2023-11-22T06:59:31;6.90;99.90
30678;DHT22;73746;47.466;8.992;2023-11-22T07:02:03;6.90;99.90
30678;DHT22;73746;47.466;8.992;2023-11-22T07:04:37;6.90;99.90
30678;DHT22;73746;47.466;8.992;2023-11-22T07:07:10;6.90;99.90
30678;DHT22;73746;47.466;8.992;2023-11-22T07:09:43;6.80;99.90
30678;DHT22;73746;47.466;8.992;2023-11-22T07:12:16;6.80;99.90
30678;DHT22;73746;47.466;8.992;2023-11-22T07:14:49;6.60;99.90
30678;DHT22;73746;47.466;8.992;2023-11-22T07:17:21;6.60;99.90
30678;DHT22;73746;47.466;8.992;2023-11-22T07:19:53;6.50;99.90
30678;DHT22;73746;47.466;8.992;2023-11-22T07:22:25;6.40;99.90
30678;DHT22;73746;47.466;8.992;2023-11-22T07:24:58;6.40;99.90
30678;DHT22;73746;47.466;8.992;2023-11-22T07:27:32;6.30;99.90
30678;DHT22;73746;47.466;8.992;2023-11-22T07:30:06;6.30;99.90
30678;DHT22;73746;47.466;8.992;2023-11-22T07:32:38;6.30;99.90
30678;DHT22;73746;47.466;8.992;2023-11-22T07:35:11;6.30;99.90
30678;DHT22;73746;47.466;8.992;2023-11-22T07:37:43;6.20;99.90
30678;DHT22;73746;47.466;8.992;2023-11-22T07:40:15;6.20;99.90
30678;DHT22;73746;47.466;8.992;2023-11-22T07:42:49;6.10;99.90
30678;DHT22;73746;47.466;8.992;2023-11-22T07:45:21;6.10;99.90
30678;DHT22;73746;47.466;8.992;2023-11-22T07:47:53;6.10;99.90
30678;DHT22;73746;47.466;8.992;2023-11-22T07:50:27;6.10;99.90
30678;DHT22;73746;47.466;8.992;2023-11-22T07:53:00;6.10;99.90
30678;DHT22;73746;47.466;8.992;2023-11-22T07:55:34;6.10;99.90
30678;DHT22;73746;47.466;8.992;2023-11-22T07:58:08;6.00;99.90
30678;DHT22;73746;47.466;8.992;2023-11-22T08:00:42;6.00;99.90
30678;DHT22;73746;47.466;8.992;2023-11-22T08:03:16;6.00;99.90
30678;DHT22;73746;47.466;8.992;2023-11-22T08:05:49;6.00;99.90
30678;DHT22;73746;47.466;8.992;2023-11-22T08:08:23;6.00;99.90
30678;DHT22;73746;47.466;8.992;2023-11-22T08:10:56;6.00;99.90
30678;DHT22;73746;47.466;8.992;2023-11-22T08:13:28;6.00;99.90
30678;DHT22;73746;47.466;8.992;2023-11-22T08:16:00;6.00;99.90
30678;DHT22;73746;47.466;8.992;2023-11-22T08:18:32;5.90;99.90
30678;DHT22;73746;47.466;8.992;2023-11-22T08:21:05;5.90;99.90
30678;DHT22;73746;47.466;8.992;2023-11-22T08:23:38;5.90;99.90
30678;DHT22;73746;47.466;8.992;2023-11-22T08:26:10;5.90;99.90
30678;DHT22;73746;47.466;8.992;2023-11-22T08:28:43;5.80;99.90
30678;DHT22;73746;47.466;8.992;2023-11-22T08:31:14;5.80;99.90
30678;DHT22;73746;47.466;8.992;2023-11-22T08:33:47;5.80;99.90
30678;DHT22;73746;47.466;8.992;2023-11-22T08:36:19;5.70;99.90
30678;DHT22;73746;47.466;8.992;2023-11-22T08:38:50;5.70;99.90
30678;DHT22;73746;47.466;8.992;2023-11-22T08:41:23;5.70;99.90
30678;DHT22;73746;47.466;8.992;2023-11-22T08:43:55;5.60;99.90
30678;DHT22;73746;47.466;8.992;2023-11-22T08:46:27;5.60;99.90
30678;DHT22;73746;47.466;8.992;2023-11-22T08:48:59;5.70;99.90
30678;DHT22;73746;47.466;8.992;2023-11-22T08:51:33;5.70;99.90
30678;DHT22;73746;47.466;8.992;2023-11-22T08:54:06;5.70;99.90
30678;DHT22;73746;47.466;8.992;2023-11-22T08:56:38;5.70;99.90
30678;DHT22;73746;47.466;8.992;2023-11-22T08:59:10;5.80;99.90
30678;DHT22;73746;47.466;8.992;2023-11-22T09:01:42;5.90;99.90
30678;DHT22;73746;47.466;8.992;2023-11-22T09:04:16;5.90;99.90
30678;DHT22;73746;47.466;8.992;2023-11-22T09:06:49;5.90;99.90
30678;DHT22;73746;47.466;8.992;2023-11-22T09:09:21;5.80;99.90
30678;DHT22;73746;47.466;8.992;2023-11-22T09:11:55;5.70;99.90
30678;DHT22;73746;47.466;8.992;2023-11-22T09:14:27;5.70;99.90
30678;DHT22;73746;47.466;8.992;2023-11-22T09:16:59;5.60;99.90
30678;DHT22;73746;47.466;8.992;2023-11-22T09:19:33;5.60;99.90
30678;DHT22;73746;47.466;8.992;2023-11-22T09:22:05;5.50;99.90
30678;DHT22;73746;47.466;8.992;2023-11-22T09:24:39;5.50;99.90
30678;DHT22;73746;47.466;8.992;2023-11-22T09:27:11;5.40;99.90
30678;DHT22;73746;47.466;8.992;2023-11-22T09:29:44;5.40;99.90
30678;DHT22;73746;47.466;8.992;2023-11-22T09:32:16;5.40;99.90
30678;DHT22;73746;47.466;8.992;2023-11-22T09:34:48;5.40;99.90
30678;DHT22;73746;47.466;8.992;2023-11-22T09:37:22;5.40;99.90
30678;DHT22;73746;47.466;8.992;2023-11-22T09:39:54;5.30;99.90
30678;DHT22;73746;47.466;8.992;2023-11-22T09:42:44;5.30;99.90
30678;DHT22;73746;47.466;8.992;2023-11-22T09:45:19;5.30;99.90
30678;DHT22;73746;47.466;8.992;2023-11-22T09:47:51;5.20;99.90
30678;DHT22;73746;47.466;8.992;2023-11-22T09:50:29;5.20;99.90
30678;DHT22;73746;47.466;8.992;2023-11-22T09:53:02;5.20;99.90
30678;DHT22;73746;47.466;8.992;2023-11-22T09:55:34;5.30;99.90
30678;DHT22;73746;47.466;8.992;2023-11-22T09:58:08;5.30;99.90
30678;DHT22;73746;47.466;8.992;2023-11-22T10:00:41;5.30;99.90
30678;DHT22;73746;47.466;8.992;2023-11-22T10:03:14;5.30;99.90
30678;DHT22;73746;47.466;8.992;2023-11-22T10:05:48;5.40;99.90
30678;DHT22;73746;47.466;8.992;2023-11-22T10:08:21;5.30;99.90
30678;DHT22;73746;47.466;8.992;2023-11-22T10:10:54;5.40;99.90
30678;DHT22;73746;47.466;8.992;2023-11-22T10:13:26;5.30;99.90
30678;DHT22;73746;47.466;8.992;2023-11-22T10:16:09;5.30;99.90
30678;DHT22;73746;47.466;8.992;2023-11-22T10:18:41;5.40;99.90
30678;DHT22;73746;47.466;8.992;2023-11-22T10:21:21;5.40;99.90
30678;DHT22;73746;47.466;8.992;2023-11-22T10:23:56;5.40;99.90
30678;DHT22;73746;47.466;8.992;2023-11-22T10:26:28;5.30;99.90
30678;DHT22;73746;47.466;8.992;2023-11-22T10:29:00;5.40;99.90
30678;DHT22;73746;47.466;8.992;2023-11-22T10:31:34;5.40;99.90
30678;DHT22;73746;47.466;8.992;2023-11-22T10:34:06;5.20;99.90
30678;DHT22;73746;47.466;8.992;2023-11-22T10:36:39;5.10;99.90
30678;DHT22;73746;47.466;8.992;2023-11-22T10:39:12;5.10;99.90
30678;DHT22;73746;47.466;8.992;2023-11-22T10:41:46;5.20;99.90
30678;DHT22;73746;47.466;8.992;2023-11-22T10:44:21;5.10;99.90
30678;DHT22;73746;47.466;8.992;2023-11-22T10:46:54;5.20;99.90
30678;DHT22;73746;47.466;8.992;2023-11-22T10:49:26;5.20;99.90
30678;DHT22;73746;47.466;8.992;2023-11-22T10:52:01;5.10;99.90
30678;DHT22;73746;47.466;8.992;2023-11-22T10:54:36;5.10;99.90
30678;DHT22;73746;47.466;8.992;2023-11-22T10:57:09;5.10;99.90
30678;DHT22;73746;47.466;8.992;2023-11-22T10:59:44;5.10;99.90
30678;DHT22;73746;47.466;8.992;2023-11-22T11:02:19;5.20;99.90
30678;DHT22;73746;47.466;8.992;2023-11-22T11:07:41;5.20;99.90
30678;DHT22;73746;47.466;8.992;2023-11-22T11:10:14;5.20;99.90
30678;DHT22;73746;47.466;8.992;2023-11-22T11:12:48;5.20;99.90
30678;DHT22;73746;47.466;8.992;2023-11-22T11:15:21;5.10;99.90
30678;DHT22;73746;47.466;8.992;2023-11-22T11:17:53;5.10;99.90
30678;DHT22;73746;47.466;8.992;2023-11-22T11:20:25;5.10;99.90
30678;DHT22;73746;47.466;8.992;2023-11-22T11:22:57;5.00;99.90
30678;DHT22;73746;47.466;8.992;2023-11-22T11:25:30;5.00;99.90
30678;DHT22;73746;47.466;8.992;2023-11-22T11:28:04;5.10;99.90
30678;DHT22;73746;47.466;8.992;2023-11-22T11:30:46;5.10;99.90
30678;DHT22;73746;47.466;8.992;2023-11-22T11:33:26;5.20;99.90
30678;DHT22;73746;47.466;8.992;2023-11-22T11:35:56;5.20;99.90
30678;DHT22;73746;47.466;8.992;2023-11-22T11:38:31;5.20;99.90
30678;DHT22;73746;47.466;8.992;2023-11-22T11:41:09;5.20;99.90
30678;DHT22;73746;47.466;8.992;2023-11-22T11:43:44;5.10;99.90
30678;DHT22;73746;47.466;8.992;2023-11-22T11:46:17;5.00;99.90
30678;DHT22;73746;47.466;8.992;2023-11-22T11:48:50;5.10;99.90
30678;DHT22;73746;47.466;8.992;2023-11-22T11:51:23;5.10;99.90
30678;DHT22;73746;47.466;8.992;2023-11-22T11:53:55;5.20;99.90
30678;DHT22;73746;47.466;8.992;2023-11-22T11:56:28;5.30;99.90
30678;DHT22;73746;47.466;8.992;2023-11-22T11:59:02;5.30;99.90
30678;DHT22;73746;47.466;8.992;2023-11-22T12:01:34;5.30;99.90
30678;DHT22;73746;47.466;8.992;2023-11-22T12:04:07;5.20;99.90
30678;DHT22;73746;47.466;8.992;2023-11-22T12:06:38;5.10;99.90
30678;DHT22;73746;47.466;8.992;2023-11-22T12:09:12;5.10;99.90
30678;DHT22;73746;47.466;8.992;2023-11-22T12:11:44;5.10;99.90
30678;DHT22;73746;47.466;8.992;2023-11-22T12:14:17;5.00;99.90
30678;DHT22;73746;47.466;8.992;2023-11-22T12:16:51;4.90;99.90
30678;DHT22;73746;47.466;8.992;2023-11-22T12:19:28;4.90;99.90
30678;DHT22;73746;47.466;8.992;2023-11-22T12:24:27;4.80;99.90
30678;DHT22;73746;47.466;8.992;2023-11-22T12:26:59;4.90;99.90
30678;DHT22;73746;47.466;8.992;2023-11-22T12:29:31;4.90;99.90
30678;DHT22;73746;47.466;8.992;2023-11-22T12:32:05;4.90;99.90
30678;DHT22;73746;47.466;8.992;2023-11-22T12:34:38;4.80;99.90
30678;DHT22;73746;47.466;8.992;2023-11-22T12:37:12;4.90;99.90
30678;DHT22;73746;47.466;8.992;2023-11-22T12:39:46;4.90;99.90
30678;DHT22;73746;47.466;8.992;2023-11-22T12:42:19;4.90;99.90
30678;DHT22;73746;47.466;8.992;2023-11-22T12:44:52;4.80;99.90
30678;DHT22;73746;47.466;8.992;2023-11-22T12:47:34;4.70;99.90
30678;DHT22;73746;47.466;8.992;2023-11-22T12:50:10;4.80;99.90
30678;DHT22;73746;47.466;8.992;2023-11-22T12:52:42;4.80;99.90
30678;DHT22;73746;47.466;8.992;2023-11-22T12:55:14;4.80;99.90
30678;DHT22;73746;47.466;8.992;2023-11-22T12:57:56;4.90;99.90
30678;DHT22;73746;47.466;8.992;2023-11-22T13:00:28;4.90;99.90
30678;DHT22;73746;47.466;8.992;2023-11-22T13:03:00;4.90;99.90
30678;DHT22;73746;47.466;8.992;2023-11-22T13:05:34;5.00;99.90
30678;DHT22;73746;47.466;8.992;2023-11-22T13:08:06;5.00;99.90
30678;DHT22;73746;47.466;8.992;2023-11-22T13:10:39;5.00;99.90
30678;DHT22;73746;47.466;8.992;2023-11-22T13:13:11;5.00;99.90
30678;DHT22;73746;47.466;8.992;2023-11-22T13:15:44;5.00;99.90
30678;DHT22;73746;47.466;8.992;2023-11-22T13:18:21;5.00;99.90
30678;DHT22;73746;47.466;8.992;2023-11-22T13:20:58;5.00;99.90
30678;DHT22;73746;47.466;8.992;2023-11-22T13:23:31;5.00;99.90
30678;DHT22;73746;47.466;8.992;2023-11-22T13:26:04;5.00;99.90
30678;DHT22;73746;47.466;8.992;2023-11-22T13:28:38;5.00;99.90
30678;DHT22;73746;47.466;8.992;2023-11-22T13:31:11;5.00;99.90
30678;DHT22;73746;47.466;8.992;2023-11-22T13:33:45;5.00;99.90
30678;DHT22;73746;47.466;8.992;2023-11-22T13:36:17;5.00;99.90
30678;DHT22;73746;47.466;8.992;2023-11-22T13:38:49;5.10;99.90
30678;DHT22;73746;47.466;8.992;2023-11-22T13:41:21;5.10;99.90
30678;DHT22;73746;47.466;8.992;2023-11-22T13:43:55;5.10;99.90
30678;DHT22;73746;47.466;8.992;2023-11-22T13:46:27;5.00;99.90
30678;DHT22;73746;47.466;8.992;2023-11-22T13:48:59;5.00;99.90
30678;DHT22;73746;47.466;8.992;2023-11-22T13:51:31;5.10;99.90
30678;DHT22;73746;47.466;8.992;2023-11-22T13:54:03;5.10;99.90
30678;DHT22;73746;47.466;8.992;2023-11-22T13:56:36;5.10;99.90
30678;DHT22;73746;47.466;8.992;2023-11-22T13:59:08;5.20;99.90
30678;DHT22;73746;47.466;8.992;2023-11-22T14:01:40;5.20;99.90
30678;DHT22;73746;47.466;8.992;2023-11-22T14:04:13;5.20;99.90
30678;DHT22;73746;47.466;8.992;2023-11-22T14:06:45;5.20;99.90
30678;DHT22;73746;47.466;8.992;2023-11-22T14:09:17;5.20;99.90
30678;DHT22;73746;47.466;8.992;2023-11-22T14:11:50;5.20;99.90
30678;DHT22;73746;47.466;8.992;2023-11-22T14:14:23;5.10;99.90
30678;DHT22;73746;47.466;8.992;2023-11-22T14:16:55;5.10;99.90
30678;DHT22;73746;47.466;8.992;2023-11-22T14:19:27;5.10;99.90
30678;DHT22;73746;47.466;8.992;2023-11-22T14:22:00;5.00;99.90
30678;DHT22;73746;47.466;8.992;2023-11-22T14:24:32;5.00;99.90
30678;DHT22;73746;47.466;8.992;2023-11-22T14:27:06;5.00;99.90
30678;DHT22;73746;47.466;8.992;2023-11-22T14:29:37;5.00;99.90
30678;DHT22;73746;47.466;8.992;2023-11-22T14:32:09;4.90;99.90
30678;DHT22;73746;47.466;8.992;2023-11-22T14:34:41;4.90;99.90
30678;DHT22;73746;47.466;8.992;2023-11-22T14:37:14;4.90;99.90
30678;DHT22;73746;47.466;8.992;2023-11-22T14:39:46;4.80;99.90
30678;DHT22;73746;47.466;8.992;2023-11-22T14:42:19;4.80;99.90
30678;DHT22;73746;47.466;8.992;2023-11-22T14:44:52;4.70;99.90
30678;DHT22;73746;47.466;8.992;2023-11-22T14:47:24;4.70;99.90
30678;DHT22;73746;47.466;8.992;2023-11-22T14:49:56;4.70;99.90
30678;DHT22;73746;47.466;8.992;2023-11-22T14:52:28;4.60;99.90
30678;DHT22;73746;47.466;8.992;2023-11-22T14:55:00;4.60;99.90
30678;DHT22;73746;47.466;8.992;2023-11-22T14:57:33;4.60;99.90
30678;DHT22;73746;47.466;8.992;2023-11-22T15:00:07;4.60;99.90
30678;DHT22;73746;47.466;8.992;2023-11-22T15:02:41;4.60;99.90
30678;DHT22;73746;47.466;8.992;2023-11-22T15:05:14;4.70;99.90
30678;DHT22;73746;47.466;8.992;2023-11-22T15:07:46;4.70;99.90
30678;DHT22;73746;47.466;8.992;2023-11-22T15:10:19;4.70;99.90
30678;DHT22;73746;47.466;8.992;2023-11-22T15:12:51;4.70;99.90
30678;DHT22;73746;47.466;8.992;2023-11-22T15:15:24;4.70;99.90
30678;DHT22;73746;47.466;8.992;2023-11-22T15:17:57;4.60;99.90
30678;DHT22;73746;47.466;8.992;2023-11-22T15:20:29;4.60;99.90
30678;DHT22;73746;47.466;8.992;2023-11-22T15:23:01;4.60;99.90
30678;DHT22;73746;47.466;8.992;2023-11-22T15:25:33;4.60;99.90
30678;DHT22;73746;47.466;8.992;2023-11-22T15:28:05;4.60;99.90
30678;DHT22;73746;47.466;8.992;2023-11-22T15:30:39;4.50;99.90
30678;DHT22;73746;47.466;8.992;2023-11-22T15:33:11;4.50;99.90
30678;DHT22;73746;47.466;8.992;2023-11-22T15:35:43;4.50;99.90
30678;DHT22;73746;47.466;8.992;2023-11-22T15:38:15;4.50;99.90
30678;DHT22;73746;47.466;8.992;2023-11-22T15:40:47;4.50;99.90
30678;DHT22;73746;47.466;8.992;2023-11-22T15:43:19;4.50;99.90
30678;DHT22;73746;47.466;8.992;2023-11-22T15:45:51;4.50;99.90
30678;DHT22;73746;47.466;8.992;2023-11-22T15:48:25;4.50;99.90
30678;DHT22;73746;47.466;8.992;2023-11-22T15:50:58;4.40;99.90
30678;DHT22;73746;47.466;8.992;2023-11-22T15:53:30;4.40;99.90
30678;DHT22;73746;47.466;8.992;2023-11-22T15:56:21;4.40;99.90
30678;DHT22;73746;47.466;8.992;2023-11-22T15:58:55;4.60;99.90
30678;DHT22;73746;47.466;8.992;2023-11-22T16:01:29;4.70;99.90
30678;DHT22;73746;47.466;8.992;2023-11-22T16:04:01;4.60;99.90
30678;DHT22;73746;47.466;8.992;2023-11-22T16:06:36;4.40;99.90
30678;DHT22;73746;47.466;8.992;2023-11-22T16:09:08;4.30;99.90
30678;DHT22;73746;47.466;8.992;2023-11-22T16:11:41;4.10;99.90
30678;DHT22;73746;47.466;8.992;2023-11-22T16:14:13;4.10;99.90
30678;DHT22;73746;47.466;8.992;2023-11-22T16:16:46;4.20;99.90
30678;DHT22;73746;47.466;8.992;2023-11-22T16:19:17;4.30;99.90
30678;DHT22;73746;47.466;8.992;2023-11-22T16:21:49;4.30;99.90
30678;DHT22;73746;47.466;8.992;2023-11-22T16:24:21;4.30;99.90
30678;DHT22;73746;47.466;8.992;2023-11-22T16:26:53;4.30;99.90